createdAt,value
2018-10-07T00:00:07.938Z,13.14
2018-10-07T00:01:08.029Z,13.09
2018-10-07T00:02:08.122Z,13.15
2018-10-07T00:03:08.210Z,13.09
2018-10-07T00:04:08.302Z,13.17
2018-10-07T00:05:08.393Z,13.06
2018-10-07T00:06:08.487Z,13.07
2018-10-07T00:07:08.573Z,13.04
2018-10-07T00:08:08.671Z,13.07
2018-10-07T00:09:08.763Z,13.07
2018-10-07T00:10:08.873Z,13.09
2018-10-07T00:11:08.967Z,13.03
2018-10-07T00:12:09.059Z,13.06
2018-10-07T00:13:09.227Z,13.04
2018-10-07T00:14:09.196Z,13.04
2018-10-07T00:15:09.287Z,13.02
2018-10-07T00:16:09.380Z,13.11
2018-10-07T00:17:09.478Z,12.96
2018-10-07T00:18:09.572Z,13.02
2018-10-07T00:19:09.699Z,12.95
2018-10-07T00:20:09.718Z,12.97
2018-10-07T00:21:09.826Z,12.97
2018-10-07T00:22:09.919Z,13.03
2018-10-07T00:23:10.011Z,12.96
2018-10-07T00:24:10.103Z,12.95
2018-10-07T00:25:10.197Z,12.96
2018-10-07T00:26:10.288Z,13.02
2018-10-07T00:27:10.378Z,12.95
2018-10-07T00:28:10.476Z,12.93
2018-10-07T00:29:10.567Z,12.97
2018-10-07T00:30:10.657Z,12.95
2018-10-07T00:31:10.754Z,12.95
2018-10-07T00:32:10.865Z,12.89
2018-10-07T00:33:10.958Z,12.93
2018-10-07T00:34:11.052Z,12.92
2018-10-07T00:35:11.142Z,12.88
2018-10-07T00:36:11.271Z,12.84
2018-10-07T00:37:11.287Z,12.88
2018-10-07T00:38:11.384Z,12.82
2018-10-07T00:39:11.473Z,12.95
2018-10-07T00:40:11.565Z,12.93
2018-10-07T00:41:11.661Z,12.93
2018-10-07T00:42:11.752Z,12.88
2018-10-07T00:43:11.845Z,12.85
2018-10-07T00:44:11.938Z,12.84
2018-10-07T00:45:12.030Z,12.89
2018-10-07T00:46:12.122Z,12.84
2018-10-07T00:47:12.217Z,12.84
2018-10-07T00:48:12.308Z,12.89
2018-10-07T00:49:12.402Z,12.79
2018-10-07T00:50:12.495Z,12.71
2018-10-07T00:51:12.603Z,12.74
2018-10-07T00:52:12.695Z,12.75
2018-10-07T00:53:12.790Z,12.79
2018-10-07T00:54:12.881Z,12.81
2018-10-07T00:55:12.972Z,12.74
2018-10-07T00:56:13.064Z,12.71
2018-10-07T00:57:13.159Z,12.75
2018-10-07T00:58:13.248Z,12.78
2018-10-07T00:59:13.343Z,12.71
2018-10-07T01:00:13.454Z,12.66
2018-10-07T01:01:13.532Z,12.75
2018-10-07T01:02:13.622Z,12.69
2018-10-07T01:03:13.716Z,12.77
2018-10-07T01:04:13.808Z,12.77
2018-10-07T01:05:13.908Z,12.69
2018-10-07T01:06:13.997Z,12.71
2018-10-07T01:07:14.088Z,12.71
2018-10-07T01:08:14.182Z,12.75
2018-10-07T01:09:14.275Z,12.71
2018-10-07T01:10:14.366Z,12.64
2018-10-07T01:11:14.459Z,12.74
2018-10-07T01:12:14.553Z,12.69
2018-10-07T01:13:14.642Z,12.64
2018-10-07T01:14:14.734Z,12.69
2018-10-07T01:15:14.824Z,12.66
2018-10-07T01:16:14.920Z,12.54
2018-10-07T01:17:15.008Z,12.46
2018-10-07T01:18:15.103Z,12.42
2018-10-07T01:19:15.194Z,12.37
2018-10-07T01:20:15.286Z,12.42
2018-10-07T01:21:15.380Z,12.34
2018-10-07T01:22:15.472Z,12.39
2018-10-07T01:23:15.566Z,12.42
2018-10-07T01:24:15.660Z,12.34
2018-10-07T01:25:15.753Z,12.41
2018-10-07T01:26:15.843Z,12.46
2018-10-07T01:27:15.937Z,12.38
2018-10-07T01:28:16.033Z,12.39
2018-10-07T01:29:16.127Z,12.34
2018-10-07T01:30:16.220Z,12.39
2018-10-07T01:31:16.312Z,12.45
2018-10-07T01:32:16.407Z,12.39
2018-10-07T01:33:16.499Z,12.38
2018-10-07T01:34:16.593Z,12.49
2018-10-07T01:35:16.685Z,12.42
2018-10-07T01:36:16.774Z,12.45
2018-10-07T01:37:16.873Z,12.42
2018-10-07T01:38:16.959Z,12.41
2018-10-07T01:39:17.051Z,12.37
2018-10-07T01:40:17.145Z,12.46
2018-10-07T01:41:17.238Z,12.33
2018-10-07T01:42:17.333Z,12.33
2018-10-07T01:43:17.423Z,12.37
2018-10-07T01:44:17.520Z,12.38
2018-10-07T01:45:17.611Z,12.42
2018-10-07T01:46:17.704Z,12.38
2018-10-07T01:47:17.796Z,12.38
2018-10-07T01:48:17.886Z,12.41
2018-10-07T01:49:17.997Z,12.38
2018-10-07T01:50:18.086Z,12.34
2018-10-07T01:51:18.179Z,12.26
2018-10-07T01:52:18.270Z,12.37
2018-10-07T01:53:18.367Z,12.26
2018-10-07T01:54:18.462Z,12.29
2018-10-07T01:55:18.553Z,12.16
2018-10-07T01:56:18.640Z,12.21
2018-10-07T01:57:18.735Z,12.21
2018-10-07T01:58:18.823Z,12.24
2018-10-07T01:59:18.955Z,12.15
2018-10-07T02:00:19.009Z,12.15
2018-10-07T02:01:19.106Z,12.20
2018-10-07T02:02:19.199Z,12.13
2018-10-07T02:03:19.290Z,12.06
2018-10-07T02:04:19.381Z,12.19
2018-10-07T02:05:19.568Z,12.08
2018-10-07T02:06:19.554Z,12.13
2018-10-07T02:07:19.645Z,12.15
2018-10-07T02:08:19.739Z,12.13
2018-10-07T02:09:19.832Z,12.08
2018-10-07T02:10:19.925Z,12.12
2018-10-07T02:11:20.013Z,12.06
2018-10-07T02:12:20.105Z,12.04
2018-10-07T02:13:20.198Z,12.06
2018-10-07T02:14:20.293Z,12.01
2018-10-07T02:15:20.378Z,11.97
2018-10-07T02:16:20.475Z,11.97
2018-10-07T02:17:20.565Z,11.99
2018-10-07T02:18:20.659Z,11.99
2018-10-07T02:19:20.750Z,11.90
2018-10-07T02:20:20.842Z,11.85
2018-10-07T02:21:20.945Z,11.97
2018-10-07T02:22:21.038Z,11.90
2018-10-07T02:23:21.126Z,11.80
2018-10-07T02:24:21.218Z,11.82
2018-10-07T02:25:21.310Z,11.75
2018-10-07T02:26:21.400Z,11.89
2018-10-07T02:27:21.491Z,11.80
2018-10-07T02:28:21.576Z,11.86
2018-10-07T02:29:21.664Z,11.85
2018-10-07T02:30:21.760Z,11.75
2018-10-07T02:31:21.850Z,11.78
2018-10-07T02:32:21.950Z,11.86
2018-10-07T02:33:22.033Z,11.82
2018-10-07T02:34:22.126Z,11.71
2018-10-07T02:35:22.216Z,11.80
2018-10-07T02:36:22.311Z,11.74
2018-10-07T02:37:22.407Z,11.78
2018-10-07T02:38:22.493Z,11.80
2018-10-07T02:39:22.585Z,11.82
2018-10-07T02:40:22.681Z,11.75
2018-10-07T02:41:22.777Z,11.75
2018-10-07T02:42:22.870Z,11.71
2018-10-07T02:43:22.964Z,11.70
2018-10-07T02:44:23.059Z,11.75
2018-10-07T02:45:23.148Z,11.70
2018-10-07T02:46:23.241Z,11.67
2018-10-07T02:47:23.325Z,11.65
2018-10-07T02:48:23.415Z,11.62
2018-10-07T02:49:23.509Z,11.64
2018-10-07T02:50:23.599Z,11.61
2018-10-07T02:51:23.691Z,11.59
2018-10-07T02:52:23.782Z,11.68
2018-10-07T02:53:23.958Z,11.56
2018-10-07T02:54:23.968Z,11.54
2018-10-07T02:55:24.060Z,11.56
2018-10-07T02:56:24.148Z,11.54
2018-10-07T02:57:24.243Z,11.59
2018-10-07T02:58:24.334Z,11.57
2018-10-07T02:59:24.432Z,11.49
2018-10-07T03:00:24.523Z,11.53
2018-10-07T03:01:24.615Z,11.43
2018-10-07T03:02:24.707Z,11.46
2018-10-07T03:03:24.827Z,11.59
2018-10-07T03:04:24.949Z,11.46
2018-10-07T03:05:25.011Z,11.43
2018-10-07T03:06:25.104Z,11.53
2018-10-07T03:07:25.195Z,11.49
2018-10-07T03:08:25.283Z,11.56
2018-10-07T03:09:25.375Z,11.54
2018-10-07T03:10:25.500Z,11.53
2018-10-07T03:11:25.559Z,11.49
2018-10-07T03:12:25.654Z,11.44
2018-10-07T03:13:25.749Z,11.46
2018-10-07T03:14:25.837Z,11.46
2018-10-07T03:15:25.931Z,11.44
2018-10-07T03:16:26.021Z,11.47
2018-10-07T03:17:26.111Z,11.46
2018-10-07T03:18:26.204Z,11.39
2018-10-07T03:19:26.285Z,11.39
2018-10-07T03:20:26.393Z,11.49
2018-10-07T03:21:26.482Z,11.41
2018-10-07T03:22:26.571Z,11.41
2018-10-07T03:23:26.664Z,11.49
2018-10-07T03:24:26.761Z,11.47
2018-10-07T03:25:26.860Z,11.43
2018-10-07T03:26:26.956Z,11.46
2018-10-07T03:27:27.044Z,11.47
2018-10-07T03:28:27.139Z,11.36
2018-10-07T03:29:27.289Z,11.44
2018-10-07T03:30:27.323Z,11.36
2018-10-07T03:31:27.412Z,11.36
2018-10-07T03:32:27.502Z,11.41
2018-10-07T03:33:27.585Z,11.41
2018-10-07T03:34:27.679Z,11.41
2018-10-07T03:35:27.775Z,11.36
2018-10-07T03:36:27.867Z,11.35
2018-10-07T03:37:27.957Z,11.31
2018-10-07T03:38:28.051Z,11.31
2018-10-07T03:39:28.142Z,11.34
2018-10-07T03:40:28.237Z,11.31
2018-10-07T03:41:28.332Z,11.21
2018-10-07T03:42:28.419Z,11.32
2018-10-07T03:43:28.515Z,11.25
2018-10-07T03:44:28.602Z,11.24
2018-10-07T03:45:28.694Z,11.24
2018-10-07T03:46:28.784Z,11.20
2018-10-07T03:47:28.877Z,11.28
2018-10-07T03:48:28.971Z,11.28
2018-10-07T03:49:29.063Z,11.20
2018-10-07T03:50:29.154Z,11.24
2018-10-07T03:51:29.239Z,11.24
2018-10-07T03:52:29.343Z,11.24
2018-10-07T03:53:29.429Z,11.24
2018-10-07T03:54:29.522Z,11.28
2018-10-07T03:55:29.624Z,11.19
2018-10-07T03:56:29.713Z,11.24
2018-10-07T03:57:29.816Z,11.14
2018-10-07T03:58:29.905Z,11.16
2018-10-07T03:59:30.000Z,11.24
2018-10-07T04:00:30.094Z,11.16
2018-10-07T04:01:30.188Z,11.24
2018-10-07T04:02:30.272Z,11.17
2018-10-07T04:03:30.364Z,11.14
2018-10-07T04:04:30.456Z,11.14
2018-10-07T04:05:30.545Z,11.06
2018-10-07T04:06:30.641Z,11.07
2018-10-07T04:07:30.729Z,11.07
2018-10-07T04:08:30.824Z,11.11
2018-10-07T04:09:30.917Z,11.06
2018-10-07T04:10:31.006Z,10.99
2018-10-07T04:11:31.102Z,11.11
2018-10-07T04:12:31.189Z,10.95
2018-10-07T04:13:31.279Z,10.98
2018-10-07T04:14:31.372Z,11.02
2018-10-07T04:15:31.463Z,11.02
2018-10-07T04:16:31.555Z,10.98
2018-10-07T04:17:31.642Z,10.98
2018-10-07T04:18:31.737Z,11.01
2018-10-07T04:19:31.828Z,11.01
2018-10-07T04:20:31.917Z,11.02
2018-10-07T04:21:32.010Z,11.02
2018-10-07T04:22:32.105Z,11.06
2018-10-07T04:23:32.189Z,10.96
2018-10-07T04:24:32.281Z,11.06
2018-10-07T04:25:32.373Z,11.20
2018-10-07T04:26:32.463Z,11.16
2018-10-07T04:27:32.555Z,11.01
2018-10-07T04:28:32.649Z,11.13
2018-10-07T04:29:32.742Z,11.06
2018-10-07T04:30:32.833Z,11.03
2018-10-07T04:31:32.927Z,11.06
2018-10-07T04:32:33.018Z,11.10
2018-10-07T04:33:33.110Z,11.03
2018-10-07T04:34:33.203Z,11.09
2018-10-07T04:35:33.290Z,11.06
2018-10-07T04:36:33.383Z,11.16
2018-10-07T04:37:33.476Z,11.11
2018-10-07T04:38:33.573Z,11.09
2018-10-07T04:39:33.669Z,11.03
2018-10-07T04:40:33.755Z,11.09
2018-10-07T04:41:33.845Z,11.10
2018-10-07T04:42:33.941Z,11.21
2018-10-07T04:43:34.026Z,11.03
2018-10-07T04:44:34.119Z,11.10
2018-10-07T04:45:34.212Z,11.13
2018-10-07T04:46:34.302Z,11.02
2018-10-07T04:47:34.391Z,11.13
2018-10-07T04:48:34.502Z,11.06
2018-10-07T04:49:34.592Z,10.99
2018-10-07T04:50:34.685Z,11.02
2018-10-07T04:51:34.777Z,11.02
2018-10-07T04:52:34.869Z,11.01
2018-10-07T04:53:34.959Z,10.98
2018-10-07T04:54:35.051Z,10.92
2018-10-07T04:55:35.143Z,10.95
2018-10-07T04:56:35.236Z,11.01
2018-10-07T04:57:35.327Z,10.95
2018-10-07T04:58:35.417Z,10.94
2018-10-07T04:59:35.511Z,10.95
2018-10-07T05:00:35.602Z,10.99
2018-10-07T05:01:35.696Z,10.91
2018-10-07T05:02:35.785Z,10.96
2018-10-07T05:03:35.876Z,10.99
2018-10-07T05:04:35.968Z,10.96
2018-10-07T05:05:36.057Z,10.83
2018-10-07T05:06:36.154Z,10.94
2018-10-07T05:07:36.243Z,10.91
2018-10-07T05:08:36.335Z,10.88
2018-10-07T05:09:36.424Z,10.81
2018-10-07T05:10:36.515Z,10.84
2018-10-07T05:11:36.607Z,10.83
2018-10-07T05:12:36.705Z,10.78
2018-10-07T05:13:36.790Z,10.68
2018-10-07T05:14:36.881Z,10.74
2018-10-07T05:15:36.972Z,10.76
2018-10-07T05:16:37.066Z,10.84
2018-10-07T05:17:37.157Z,10.86
2018-10-07T05:18:37.278Z,10.83
2018-10-07T05:19:37.358Z,10.80
2018-10-07T05:20:37.457Z,10.80
2018-10-07T05:21:37.551Z,10.86
2018-10-07T05:22:37.640Z,10.88
2018-10-07T05:23:37.735Z,10.84
2018-10-07T05:24:37.823Z,10.89
2018-10-07T05:25:37.914Z,10.89
2018-10-07T05:26:38.006Z,10.78
2018-10-07T05:27:38.103Z,10.91
2018-10-07T05:28:38.191Z,10.89
2018-10-07T05:29:38.279Z,10.84
2018-10-07T05:30:38.372Z,10.95
2018-10-07T05:31:38.468Z,10.91
2018-10-07T05:32:38.557Z,10.88
2018-10-07T05:33:38.650Z,10.86
2018-10-07T05:34:38.737Z,10.83
2018-10-07T05:35:38.830Z,10.95
2018-10-07T05:36:38.919Z,10.95
2018-10-07T05:37:39.013Z,10.92
2018-10-07T05:38:39.103Z,10.95
2018-10-07T05:39:39.195Z,10.96
2018-10-07T05:40:39.286Z,10.95
2018-10-07T05:41:39.380Z,10.96
2018-10-07T05:42:39.469Z,10.81
2018-10-07T05:43:39.561Z,10.73
2018-10-07T05:44:39.706Z,10.71
2018-10-07T05:45:39.744Z,10.71
2018-10-07T05:46:39.831Z,10.80
2018-10-07T05:47:39.921Z,10.88
2018-10-07T05:48:40.014Z,10.88
2018-10-07T05:49:40.106Z,10.86
2018-10-07T05:50:40.196Z,10.96
2018-10-07T05:51:40.290Z,10.96
2018-10-07T05:52:40.381Z,11.07
2018-10-07T05:53:40.473Z,11.03
2018-10-07T05:54:40.567Z,11.10
2018-10-07T05:55:40.709Z,11.25
2018-10-07T05:56:40.747Z,11.17
2018-10-07T05:59:12.319Z,11.17
2018-10-07T06:00:12.410Z,11.38
2018-10-07T06:01:12.503Z,11.36
2018-10-07T06:02:12.605Z,11.39
2018-10-07T06:03:12.686Z,11.44
2018-10-07T06:04:12.774Z,11.44
2018-10-07T06:05:12.867Z,11.50
2018-10-07T06:06:12.960Z,11.57
2018-10-07T06:07:13.049Z,11.62
2018-10-07T06:08:13.143Z,11.67
2018-10-07T06:09:13.235Z,11.78
2018-10-07T06:10:13.334Z,11.77
2018-10-07T06:11:13.407Z,11.89
2018-10-07T06:12:13.497Z,11.82
2018-10-07T06:13:13.589Z,11.87
2018-10-07T06:14:13.681Z,11.96
2018-10-07T06:15:13.772Z,12.06
2018-10-07T06:16:13.864Z,12.08
2018-10-07T06:17:13.981Z,12.20
2018-10-07T06:18:14.044Z,12.16
2018-10-07T06:19:14.141Z,12.21
2018-10-07T06:20:14.233Z,12.21
2018-10-07T06:21:14.323Z,12.26
2018-10-07T06:22:14.415Z,12.29
2018-10-07T06:23:14.507Z,12.30
2018-10-07T06:24:14.595Z,12.30
2018-10-07T06:25:14.683Z,12.31
2018-10-07T06:26:14.777Z,12.42
2018-10-07T06:27:14.867Z,12.37
2018-10-07T06:28:14.960Z,12.45
2018-10-07T06:29:15.053Z,12.42
2018-10-07T06:30:15.143Z,12.51
2018-10-07T06:31:15.235Z,12.49
2018-10-07T06:32:15.328Z,12.57
2018-10-07T06:33:15.415Z,12.63
2018-10-07T06:34:15.510Z,12.69
2018-10-07T06:35:15.599Z,12.64
2018-10-07T06:36:15.691Z,12.62
2018-10-07T06:37:15.781Z,12.63
2018-10-07T06:38:15.880Z,12.70
2018-10-07T06:39:15.975Z,12.70
2018-10-07T06:40:16.065Z,12.70
2018-10-07T06:41:16.166Z,12.74
2018-10-07T06:42:16.250Z,12.74
2018-10-07T06:43:16.335Z,12.82
2018-10-07T06:44:16.436Z,12.79
2018-10-07T06:45:16.528Z,12.82
2018-10-07T06:46:16.621Z,12.89
2018-10-07T06:47:16.713Z,12.88
2018-10-07T06:48:16.881Z,12.99
2018-10-07T06:49:16.935Z,12.96
2018-10-07T06:50:17.032Z,12.97
2018-10-07T06:51:17.107Z,13.00
2018-10-07T06:52:17.198Z,12.96
2018-10-07T06:53:17.291Z,13.00
2018-10-07T06:54:17.385Z,13.07
2018-10-07T06:55:17.477Z,13.09
2018-10-07T06:56:17.557Z,13.09
2018-10-07T06:57:17.654Z,13.20
2018-10-07T06:58:17.748Z,13.18
2018-10-07T06:59:17.837Z,13.21
2018-10-07T07:00:17.936Z,13.21
2018-10-07T07:01:18.021Z,13.29
2018-10-07T07:02:18.136Z,13.32
2018-10-07T07:03:18.229Z,13.25
2018-10-07T07:04:18.321Z,13.32
2018-10-07T07:05:18.413Z,13.37
2018-10-07T07:06:18.561Z,13.22
2018-10-07T07:07:18.600Z,13.32
2018-10-07T07:08:18.693Z,13.32
2018-10-07T07:09:18.780Z,13.32
2018-10-07T07:10:18.879Z,13.36
2018-10-07T07:11:18.971Z,13.32
2018-10-07T07:12:19.063Z,13.41
2018-10-07T07:13:19.161Z,13.41
2018-10-07T07:14:19.251Z,13.38
2018-10-07T07:15:19.354Z,13.37
2018-10-07T07:16:19.449Z,13.43
2018-10-07T07:17:19.540Z,13.41
2018-10-07T07:18:19.669Z,13.46
2018-10-07T07:19:19.739Z,13.46
2018-10-07T07:20:19.904Z,13.51
2018-10-07T07:21:19.921Z,13.41
2018-10-07T07:22:20.014Z,13.46
2018-10-07T07:23:20.098Z,13.51
2018-10-07T07:24:20.205Z,13.55
2018-10-07T07:25:20.300Z,13.55
2018-10-07T07:26:20.392Z,13.56
2018-10-07T07:27:20.487Z,13.54
2018-10-07T07:28:20.579Z,13.52
2018-10-07T07:29:20.675Z,13.58
2018-10-07T07:30:20.761Z,13.56
2018-10-07T07:31:20.911Z,13.55
2018-10-07T07:32:20.950Z,13.56
2018-10-07T07:33:21.045Z,13.61
2018-10-07T07:34:21.132Z,13.67
2018-10-07T07:35:21.214Z,13.59
2018-10-07T07:36:21.328Z,13.71
2018-10-07T07:37:21.420Z,13.63
2018-10-07T07:38:21.512Z,13.71
2018-10-07T07:39:21.607Z,13.70
2018-10-07T07:40:21.706Z,13.71
2018-10-07T07:41:21.797Z,13.73
2018-10-07T07:42:21.916Z,13.80
2018-10-07T07:43:21.984Z,13.81
2018-10-07T07:44:22.079Z,13.81
2018-10-07T07:45:22.168Z,13.84
2018-10-07T07:46:22.265Z,13.94
2018-10-07T07:47:22.362Z,13.95
2018-10-07T07:48:22.448Z,14.04
2018-10-07T07:49:22.551Z,14.01
2018-10-07T07:50:22.644Z,14.13
2018-10-07T07:51:22.742Z,14.19
2018-10-07T07:52:22.828Z,14.14
2018-10-07T07:53:22.923Z,14.07
2018-10-07T07:54:23.023Z,14.12
2018-10-07T07:55:23.110Z,14.27
2018-10-07T07:56:23.206Z,14.29
2018-10-07T07:57:23.296Z,14.28
2018-10-07T07:58:23.391Z,14.37
2018-10-07T07:59:23.479Z,14.43
2018-10-07T08:00:23.575Z,14.28
2018-10-07T08:01:23.661Z,14.42
2018-10-07T08:02:23.751Z,14.43
2018-10-07T08:03:23.844Z,14.46
2018-10-07T08:04:23.935Z,14.50
2018-10-07T08:05:24.028Z,14.52
2018-10-07T08:06:24.125Z,14.49
2018-10-07T08:07:24.218Z,14.49
2018-10-07T08:08:24.310Z,14.60
2018-10-07T08:09:24.445Z,14.56
2018-10-07T08:10:24.494Z,14.57
2018-10-07T08:11:24.590Z,14.56
2018-10-07T08:12:24.680Z,14.54
2018-10-07T08:13:24.776Z,14.64
2018-10-07T08:14:24.868Z,14.71
2018-10-07T08:15:24.959Z,14.72
2018-10-07T08:16:25.049Z,14.78
2018-10-07T08:17:25.163Z,14.75
2018-10-07T08:18:25.240Z,14.78
2018-10-07T08:19:25.332Z,14.78
2018-10-07T08:20:25.426Z,14.84
2018-10-07T08:21:25.520Z,14.86
2018-10-07T08:22:25.613Z,14.75
2018-10-07T08:23:25.723Z,14.84
2018-10-07T08:24:25.803Z,14.80
2018-10-07T08:25:25.896Z,14.75
2018-10-07T08:26:25.989Z,14.75
2018-10-07T08:27:26.084Z,14.81
2018-10-07T08:28:26.177Z,14.81
2018-10-07T08:29:26.294Z,14.78
2018-10-07T08:30:26.369Z,14.80
2018-10-07T08:31:26.459Z,14.78
2018-10-07T08:32:26.557Z,14.80
2018-10-07T08:33:26.655Z,14.81
2018-10-07T08:34:26.746Z,14.81
2018-10-07T08:35:26.936Z,14.86
2018-10-07T08:36:26.931Z,14.81
2018-10-07T08:37:27.012Z,14.78
2018-10-07T08:38:27.108Z,14.81
2018-10-07T08:39:27.214Z,14.80
2018-10-07T08:40:27.307Z,14.80
2018-10-07T08:41:27.406Z,14.84
2018-10-07T08:42:27.498Z,14.74
2018-10-07T08:43:27.609Z,14.71
2018-10-07T08:44:27.713Z,14.78
2018-10-07T08:45:27.803Z,14.75
2018-10-07T08:46:27.901Z,14.71
2018-10-07T08:47:27.996Z,14.80
2018-10-07T08:48:28.105Z,14.74
2018-10-07T08:49:28.183Z,14.78
2018-10-07T08:50:28.276Z,14.87
2018-10-07T08:51:28.372Z,14.86
2018-10-07T08:52:28.464Z,14.87
2018-10-07T08:53:28.562Z,14.87
2018-10-07T08:54:28.651Z,14.86
2018-10-07T08:55:28.746Z,14.74
2018-10-07T08:56:28.893Z,14.84
2018-10-07T08:57:28.930Z,14.81
2018-10-07T08:58:29.024Z,14.90
2018-10-07T08:59:29.140Z,14.90
2018-10-07T09:00:29.236Z,14.88
2018-10-07T09:01:29.327Z,14.84
2018-10-07T09:02:29.420Z,14.81
2018-10-07T09:03:29.515Z,14.75
2018-10-07T09:04:29.609Z,14.81
2018-10-07T09:05:29.701Z,14.65
2018-10-07T09:06:29.788Z,14.46
2018-10-07T09:07:29.880Z,14.31
2018-10-07T09:08:29.970Z,14.31
2018-10-07T09:09:30.090Z,14.28
2018-10-07T09:10:30.153Z,14.21
2018-10-07T09:11:30.256Z,14.29
2018-10-07T09:12:30.364Z,14.28
2018-10-07T09:13:30.452Z,14.21
2018-10-07T09:14:30.573Z,14.32
2018-10-07T09:15:30.640Z,14.39
2018-10-07T09:16:30.736Z,14.35
2018-10-07T09:17:30.829Z,14.38
2018-10-07T09:18:30.921Z,14.50
2018-10-07T09:19:31.019Z,14.39
2018-10-07T09:20:31.108Z,14.20
2018-10-07T09:21:31.202Z,14.32
2018-10-07T09:22:31.296Z,14.07
2018-10-07T09:23:31.392Z,14.09
2018-10-07T09:24:31.483Z,14.01
2018-10-07T09:25:31.587Z,14.02
2018-10-07T09:26:31.681Z,13.91
2018-10-07T09:27:31.845Z,13.98
2018-10-07T09:28:31.868Z,13.77
2018-10-07T09:29:31.961Z,13.69
2018-10-07T09:30:32.052Z,13.55
2018-10-07T09:31:32.146Z,13.52
2018-10-07T09:32:32.394Z,13.52
2018-10-07T09:33:32.330Z,13.59
2018-10-07T09:34:32.423Z,13.71
2018-10-07T09:35:32.519Z,13.62
2018-10-07T09:36:32.673Z,13.59
2018-10-07T09:37:32.714Z,13.73
2018-10-07T09:38:32.810Z,13.76
2018-10-07T09:39:32.920Z,13.77
2018-10-07T09:40:32.997Z,13.84
2018-10-07T09:41:33.090Z,13.83
2018-10-07T09:42:33.184Z,13.89
2018-10-07T09:43:33.277Z,13.80
2018-10-07T09:44:33.372Z,13.80
2018-10-07T09:45:33.462Z,13.81
2018-10-07T09:46:33.555Z,13.77
2018-10-07T09:47:33.650Z,13.96
2018-10-07T09:48:33.740Z,14.02
2018-10-07T09:49:33.836Z,14.14
2018-10-07T09:50:33.931Z,14.12
2018-10-07T09:51:34.033Z,14.19
2018-10-07T09:52:34.131Z,14.14
2018-10-07T09:53:34.221Z,14.14
2018-10-07T09:54:34.315Z,14.13
2018-10-07T09:55:34.408Z,14.14
2018-10-07T09:56:34.505Z,14.28
2018-10-07T09:57:34.599Z,14.28
2018-10-07T09:58:34.695Z,14.42
2018-10-07T09:59:34.790Z,14.24
2018-10-07T10:00:34.882Z,14.17
2018-10-07T10:01:34.979Z,14.09
2018-10-07T10:02:35.064Z,14.12
2018-10-07T10:03:35.157Z,14.10
2018-10-07T10:04:35.325Z,14.19
2018-10-07T10:05:35.353Z,14.20
2018-10-07T10:06:35.445Z,14.02
2018-10-07T10:07:35.538Z,14.09
2018-10-07T10:08:35.634Z,14.07
2018-10-07T10:09:35.722Z,14.06
2018-10-07T10:10:35.822Z,14.02
2018-10-07T10:11:35.908Z,14.07
2018-10-07T10:12:36.008Z,14.09
2018-10-07T10:13:36.100Z,13.98
2018-10-07T10:14:36.193Z,14.06
2018-10-07T10:15:36.285Z,14.13
2018-10-07T10:16:36.378Z,14.16
2018-10-07T10:17:36.541Z,14.16
2018-10-07T10:18:36.573Z,14.07
2018-10-07T10:19:36.726Z,13.88
2018-10-07T10:20:36.762Z,13.89
2018-10-07T10:21:36.857Z,13.99
2018-10-07T10:22:36.987Z,13.77
2018-10-07T10:23:37.035Z,13.73
2018-10-07T10:24:37.121Z,13.81
2018-10-07T10:25:37.212Z,13.94
2018-10-07T10:26:37.305Z,14.01
2018-10-07T10:27:37.399Z,14.01
2018-10-07T10:28:37.493Z,14.07
2018-10-07T10:29:37.584Z,14.09
2018-10-07T10:30:37.698Z,14.29
2018-10-07T10:31:37.764Z,14.19
2018-10-07T10:32:37.857Z,14.16
2018-10-07T10:33:37.961Z,13.99
2018-10-07T10:34:38.050Z,14.07
2018-10-07T10:35:38.148Z,14.13
2018-10-07T10:36:38.290Z,14.02
2018-10-07T10:37:38.335Z,13.83
2018-10-07T10:38:38.426Z,13.61
2018-10-07T10:39:38.633Z,13.63
2018-10-07T10:40:38.624Z,13.62
2018-10-07T10:41:38.716Z,13.67
2018-10-07T10:42:38.803Z,13.80
2018-10-07T10:43:38.902Z,13.80
2018-10-07T10:44:38.986Z,13.79
2018-10-07T10:45:39.081Z,13.58
2018-10-07T10:46:39.176Z,13.56
2018-10-07T10:47:39.271Z,13.59
2018-10-07T10:48:39.363Z,13.71
2018-10-07T10:49:39.459Z,13.83
2018-10-07T10:50:39.552Z,13.79
2018-10-07T10:51:39.644Z,13.91
2018-10-07T10:52:39.737Z,13.92
2018-10-07T10:53:39.834Z,13.69
2018-10-07T10:54:39.923Z,13.69
2018-10-07T10:55:40.016Z,13.62
2018-10-07T10:56:40.112Z,13.43
2018-10-07T10:57:40.201Z,13.46
2018-10-07T10:58:40.292Z,13.55
2018-10-07T10:59:40.392Z,13.63
2018-10-07T11:00:40.485Z,13.71
2018-10-07T11:01:40.588Z,13.84
2018-10-07T11:02:40.681Z,13.89
2018-10-07T11:03:40.771Z,13.96
2018-10-07T11:04:40.895Z,13.98
2018-10-07T11:05:40.955Z,14.09
2018-10-07T11:06:41.049Z,14.21
2018-10-07T11:07:41.143Z,14.29
2018-10-07T11:08:41.231Z,14.16
2018-10-07T11:09:41.318Z,14.01
2018-10-07T11:10:41.415Z,14.14
2018-10-07T11:11:41.508Z,14.17
2018-10-07T11:12:41.599Z,14.32
2018-10-07T11:13:41.724Z,14.24
2018-10-07T11:14:41.787Z,14.20
2018-10-07T11:15:41.928Z,14.25
2018-10-07T11:16:41.986Z,14.28
2018-10-07T11:17:42.083Z,14.29
2018-10-07T11:18:42.172Z,14.34
2018-10-07T11:19:42.268Z,14.50
2018-10-07T11:20:42.358Z,14.43
2018-10-07T11:21:42.450Z,14.38
2018-10-07T11:22:42.544Z,14.39
2018-10-07T11:23:42.641Z,14.47
2018-10-07T11:24:42.735Z,14.47
2018-10-07T11:25:42.832Z,14.53
2018-10-07T11:26:42.923Z,14.44
2018-10-07T11:27:43.017Z,14.43
2018-10-07T11:28:43.113Z,14.42
2018-10-07T11:29:43.211Z,14.47
2018-10-07T11:30:43.305Z,14.61
2018-10-07T11:31:43.405Z,14.75
2018-10-07T11:32:43.500Z,14.86
2018-10-07T11:33:43.597Z,15.01
2018-10-07T11:34:44.517Z,15.24
2018-10-07T11:35:43.772Z,15.42
2018-10-07T11:36:43.873Z,15.45
2018-10-07T11:37:43.971Z,15.51
2018-10-07T11:38:44.071Z,15.49
2018-10-07T11:39:44.164Z,15.41
2018-10-07T11:40:44.276Z,15.51
2018-10-07T11:41:44.357Z,15.59
2018-10-07T11:42:44.455Z,15.79
2018-10-07T11:43:44.549Z,15.78
2018-10-07T11:44:44.643Z,15.79
2018-10-07T11:45:44.746Z,15.84
2018-10-07T11:46:44.841Z,15.67
2018-10-07T11:47:44.946Z,15.70
2018-10-07T11:48:45.929Z,15.74
2018-10-07T11:49:45.130Z,15.82
2018-10-07T11:50:45.227Z,15.78
2018-10-07T11:51:45.323Z,15.78
2018-10-07T11:52:45.425Z,15.81
2018-10-07T11:53:45.533Z,15.99
2018-10-07T11:54:45.633Z,15.38
2018-10-07T11:55:45.730Z,14.88
2018-10-07T11:56:45.824Z,14.88
2018-10-07T11:57:45.924Z,14.83
2018-10-07T11:58:46.017Z,14.98
2018-10-07T11:59:55.511Z,15.15
2018-10-07T12:00:46.227Z,15.28
2018-10-07T12:01:46.323Z,15.19
2018-10-07T12:02:46.446Z,14.90
2018-10-07T12:03:46.510Z,14.88
2018-10-07T12:04:46.619Z,15.05
2018-10-07T12:05:46.714Z,15.20
2018-10-07T12:06:46.807Z,15.31
2018-10-07T12:07:46.904Z,15.30
2018-10-07T12:08:46.999Z,15.12
2018-10-07T12:09:47.094Z,15.21
2018-10-07T12:10:47.187Z,15.36
2018-10-07T12:11:47.283Z,15.42
2018-10-07T12:12:47.374Z,15.24
2018-10-07T12:13:47.467Z,15.24
2018-10-07T12:14:47.563Z,15.30
2018-10-07T12:15:47.657Z,15.45
2018-10-07T12:16:47.753Z,15.59
2018-10-07T12:17:47.847Z,15.56
2018-10-07T12:18:47.943Z,15.66
2018-10-07T12:19:48.036Z,15.61
2018-10-07T12:20:48.128Z,15.54
2018-10-07T12:21:48.229Z,15.26
2018-10-07T12:22:48.322Z,15.38
2018-10-07T12:23:48.417Z,15.52
2018-10-07T12:24:48.503Z,15.56
2018-10-07T12:25:48.614Z,15.68
2018-10-07T12:26:48.704Z,15.75
2018-10-07T12:27:48.793Z,15.78
2018-10-07T12:28:48.901Z,15.81
2018-10-07T12:29:48.985Z,15.93
2018-10-07T12:30:49.077Z,15.82
2018-10-07T12:31:49.174Z,15.63
2018-10-07T12:32:49.270Z,15.56
2018-10-07T12:33:49.362Z,15.66
2018-10-07T12:34:49.454Z,15.63
2018-10-07T12:35:49.549Z,15.57
2018-10-07T12:36:49.685Z,15.49
2018-10-07T12:37:49.739Z,15.56
2018-10-07T12:38:49.832Z,15.68
2018-10-07T12:39:49.926Z,15.74
2018-10-07T12:40:50.021Z,15.51
2018-10-07T12:41:50.118Z,15.33
2018-10-07T12:42:50.217Z,15.36
2018-10-07T12:43:50.301Z,15.48
2018-10-07T12:44:50.391Z,15.49
2018-10-07T12:45:50.489Z,15.63
2018-10-07T12:46:50.585Z,15.68
2018-10-07T12:47:50.679Z,15.26
2018-10-07T12:48:50.772Z,15.03
2018-10-07T12:49:50.869Z,15.08
2018-10-07T12:50:50.960Z,15.17
2018-10-07T12:51:51.055Z,15.23
2018-10-07T12:52:51.147Z,15.31
2018-10-07T12:53:51.267Z,15.21
2018-10-07T12:54:51.335Z,15.02